Time;durP1;ratioP1;P1;durP2;ratioP2;P2;SDS_P1;SDS_P2;PMS_P1;PMS_P2;Temp;Humidity;BMP_temperature;BMP_pressure;BME280_temperature;BME280_humidity;BME280_pressure;Samples;Min_cycle;Max_cycle;Signal;HPM_P1;HPM_P2
2023/02/03 00:01:33;;;;;;;5.22;3.95;;;;;;;;;;4918528;29;20039;-64
2023/02/03 00:03:59;;;;;;;5.93;4.10;;;;;;;;;;4901595;29;20487;-65
2023/02/03 00:06:24;;;;;;;5.65;4.03;;;;;;;;;;4901651;29;20036;-65
2023/02/03 00:08:53;;;;;;;5.28;3.90;;;;;;;;;;4901564;29;20400;-62
2023/02/03 00:11:18;;;;;;;5.80;3.95;;;;;;;;;;4918800;29;20032;-62
2023/02/03 00:13:43;;;;;;;4.40;3.45;;;;;;;;;;4901864;29;20064;-61
2023/02/03 00:16:09;;;;;;;5.10;3.53;;;;;;;;;;4917140;29;20075;-62
2023/02/03 00:18:35;;;;;;;6.40;4.10;;;;;;;;;;4918395;29;20032;-63
2023/02/03 00:21:00;;;;;;;4.25;3.50;;;;;;;;;;4918318;29;20140;-61
2023/02/03 00:23:28;;;;;;;5.55;3.67;;;;;;;;;;4918503;29;20111;-61
2023/02/03 00:25:54;;;;;;;4.70;3.50;;;;;;;;;;4918371;29;20096;-61
2023/02/03 00:28:19;;;;;;;4.93;3.70;;;;;;;;;;4918368;29;20024;-62
2023/02/03 00:30:45;;;;;;;5.65;3.72;;;;;;;;;;4901534;29;20103;-62
2023/02/03 00:33:11;;;;;;;6.60;3.90;;;;;;;;;;4918365;29;20024;-63
2023/02/03 00:35:37;;;;;;;4.53;3.45;;;;;;;;;;4901420;29;20032;-63
2023/02/03 00:38:04;;;;;;;4.70;3.50;;;;;;;;;;4917838;29;20099;-65
2023/02/03 00:40:30;;;;;;;3.67;3.05;;;;;;;;;;4918438;29;20028;-65
2023/02/03 00:42:56;;;;;;;2.85;2.63;;;;;;;;;;4918336;29;20050;-65
2023/02/03 00:45:21;;;;;;;3.00;2.80;;;;;;;;;;4917882;29;20049;-65
2023/02/03 00:47:47;;;;;;;3.25;2.70;;;;;;;;;;4885467;29;20458;-65
2023/02/03 00:50:12;;;;;;;2.60;2.38;;;;;;;;;;4901001;29;20032;-65
2023/02/03 00:52:37;;;;;;;3.22;2.38;;;;;;;;;;4900954;29;20063;-65
2023/02/03 00:55:03;;;;;;;3.20;2.30;;;;;;;;;;4900641;29;20083;-62
2023/02/03 00:57:29;;;;;;;3.47;2.40;;;;;;;;;;4917692;29;20122;-62
2023/02/03 00:59:54;;;;;;;2.63;2.42;;;;;;;;;;4917683;29;20076;-61
2023/02/03 01:02:20;;;;;;;3.45;2.00;;;;;;;;;;4900865;29;20039;-62
2023/02/03 01:04:45;;;;;;;3.20;1.85;;;;;;;;;;4900709;29;20032;-62
2023/02/03 01:07:10;;;;;;;1.85;1.73;;;;;;;;;;4917623;29;20020;-62
2023/02/03 01:09:36;;;;;;;1.90;1.70;;;;;;;;;;4917625;29;20060;-62
2023/02/03 01:12:02;;;;;;;2.22;2.03;;;;;;;;;;4900468;29;20676;-62
2023/02/03 01:14:28;;;;;;;2.22;1.90;;;;;;;;;;4917747;29;20034;-62
2023/02/03 01:16:53;;;;;;;2.50;2.30;;;;;;;;;;4897205;29;20535;-62
2023/02/03 01:19:18;;;;;;;2.55;1.77;;;;;;;;;;4898793;29;20748;-63
2023/02/03 01:21:44;;;;;;;2.22;2.03;;;;;;;;;;4897048;29;20040;-63
2023/02/03 01:24:09;;;;;;;2.55;1.85;;;;;;;;;;4897323;29;20032;-63
2023/02/03 01:26:37;;;;;;;2.88;1.95;;;;;;;;;;4896991;29;20024;-63
2023/02/03 01:29:03;;;;;;;1.77;1.58;;;;;;;;;;4898076;29;20092;-63
2023/02/03 01:31:30;;;;;;;2.45;1.95;;;;;;;;;;4896707;29;20028;-63
2023/02/03 01:33:57;;;;;;;2.13;1.88;;;;;;;;;;4898206;29;20037;-63
2023/02/03 01:36:23;;;;;;;3.30;1.95;;;;;;;;;;4881496;29;20478;-63
2023/02/03 01:38:49;;;;;;;2.13;1.92;;;;;;;;;;4896918;29;20032;-63
2023/02/03 01:41:16;;;;;;;2.35;1.73;;;;;;;;;;4896747;29;20041;-64
2023/02/03 01:43:48;;;;;;;3.40;2.40;;;;;;;;;;4896891;29;20497;-63
2023/02/03 01:46:20;;;;;;;4.75;2.67;;;;;;;;;;4896830;29;20072;-64
2023/02/03 01:48:47;;;;;;;2.63;2.30;;;;;;;;;;4897975;29;20052;-63
2023/02/03 01:51:12;;;;;;;4.70;2.67;;;;;;;;;;4896816;29;20036;-65
2023/02/03 01:53:38;;;;;;;3.70;2.35;;;;;;;;;;4897948;29;20039;-65
2023/02/03 01:56:05;;;;;;;2.08;1.75;;;;;;;;;;4898000;29;20029;-65
2023/02/03 01:58:32;;;;;;;2.47;2.15;;;;;;;;;;4896764;29;20036;-65
2023/02/03 02:00:58;;;;;;;3.45;2.13;;;;;;;;;;4896744;29;20462;-63
2023/02/03 02:03:30;;;;;;;3.00;2.35;;;;;;;;;;4897495;29;20031;-62
2023/02/03 02:06:06;;;;;;;3.33;2.38;;;;;;;;;;4897997;29;20032;-62
2023/02/03 02:08:31;;;;;;;3.40;2.47;;;;;;;;;;4897892;29;20040;-65
2023/02/03 02:10:58;;;;;;;2.70;2.25;;;;;;;;;;4896492;29;20051;-62
2023/02/03 02:13:24;;;;;;;4.43;2.60;;;;;;;;;;4896995;29;20103;-62
2023/02/03 02:15:49;;;;;;;2.20;1.92;;;;;;;;;;4896352;29;20565;-62
2023/02/03 02:18:32;;;;;;;3.67;2.38;;;;;;;;;;4897185;29;20028;-63
2023/02/03 02:21:15;;;;;;;3.95;2.10;;;;;;;;;;4897470;29;20033;-62
2023/02/03 02:23:43;;;;;;;2.50;2.22;;;;;;;;;;4896184;29;20112;-61
2023/02/03 02:26:22;;;;;;;3.38;2.40;;;;;;;;;;4880953;29;20066;-62
2023/02/03 02:29:02;;;;;;;3.90;2.45;;;;;;;;;;4896357;29;20119;-63
2023/02/03 02:31:31;;;;;;;3.17;2.13;;;;;;;;;;4880776;29;20040;-62
2023/02/03 02:34:07;;;;;;;2.90;2.53;;;;;;;;;;4896332;29;20029;-62
2023/02/03 02:36:53;;;;;;;3.05;2.28;;;;;;;;;;4896333;29;20028;-63
2023/02/03 02:39:24;;;;;;;3.95;2.40;;;;;;;;;;4897026;29;20045;-63
2023/02/03 02:42:13;;;;;;;2.33;1.85;;;;;;;;;;4884450;29;20111;-62
2023/02/03 02:44:42;;;;;;;2.75;2.00;;;;;;;;;;4865333;29;20044;-63
2023/02/03 02:47:17;;;;;;;3.20;2.38;;;;;;;;;;4900004;29;20131;-63
2023/02/03 02:49:47;;;;;;;2.10;1.90;;;;;;;;;;4899938;29;20024;-63
2023/02/03 02:52:14;;;;;;;2.97;1.60;;;;;;;;;;4899873;29;20032;-63
2023/02/03 02:54:43;;;;;;;2.40;1.83;;;;;;;;;;4899875;29;20029;-63
2023/02/03 02:57:10;;;;;;;3.22;1.75;;;;;;;;;;4899851;29;20032;-63
2023/02/03 02:59:36;;;;;;;3.47;2.00;;;;;;;;;;4899794;29;20060;-63
2023/02/03 03:02:01;;;;;;;2.38;2.17;;;;;;;;;;4899940;29;20029;-63
2023/02/03 03:04:28;;;;;;;2.67;2.03;;;;;;;;;;4899913;29;20521;-63
2023/02/03 03:06:57;;;;;;;4.07;2.38;;;;;;;;;;4901112;29;20033;-63
2023/02/03 03:09:25;;;;;;;4.30;2.10;;;;;;;;;;4900924;29;20041;-63
2023/02/03 03:11:57;;;;;;;3.15;2.42;;;;;;;;;;4899512;29;20032;-63
2023/02/03 03:14:24;;;;;;;3.42;2.50;;;;;;;;;;4884131;29;20029;-63
2023/02/03 03:16:52;;;;;;;4.10;2.75;;;;;;;;;;4899266;29;20048;-63
2023/02/03 03:19:20;;;;;;;3.05;2.30;;;;;;;;;;4883705;29;20028;-63
2023/02/03 03:21:56;;;;;;;3.33;2.55;;;;;;;;;;4899139;29;20021;-63
2023/02/03 03:24:32;;;;;;;1.98;1.70;;;;;;;;;;4898982;29;20477;-63
2023/02/03 03:27:03;;;;;;;2.67;1.67;;;;;;;;;;4900350;29;20041;-62
2023/02/03 03:29:30;;;;;;;2.75;1.70;;;;;;;;;;4900525;29;20055;-63
2023/02/03 03:31:56;;;;;;;2.55;1.75;;;;;;;;;;4899047;29;20100;-63
2023/02/03 03:34:22;;;;;;;1.67;1.50;;;;;;;;;;4890651;29;20036;-62
2023/02/03 03:36:52;;;;;;;2.00;1.80;;;;;;;;;;4884543;29;20051;-62
2023/02/03 03:39:27;;;;;;;2.88;1.60;;;;;;;;;;4900176;29;20033;-62
2023/02/03 03:42:25;;;;;;;1.63;1.52;;;;;;;;;;4881393;29;20072;-63
2023/02/03 03:44:59;;;;;;;1.80;1.60;;;;;;;;;;4859696;29;20393;-63
2023/02/03 03:47:25;;;;;;;1.70;1.60;;;;;;;;;;4881206;29;20044;-62
2023/02/03 03:49:52;;;;;;;1.98;1.70;;;;;;;;;;4880755;29;20144;-62
2023/02/03 03:52:20;;;;;;;2.33;1.50;;;;;;;;;;4886123;29;20031;-63
2023/02/03 03:54:46;;;;;;;2.67;1.80;;;;;;;;;;4899767;29;20118;-62
2023/02/03 03:57:14;;;;;;;2.05;1.90;;;;;;;;;;4900126;29;20029;-62
2023/02/03 03:59:41;;;;;;;1.88;1.40;;;;;;;;;;4900082;29;20028;-62
2023/02/03 04:02:06;;;;;;;1.95;1.75;;;;;;;;;;4899786;29;20040;-63
2023/02/03 04:04:34;;;;;;;2.15;1.63;;;;;;;;;;4882956;29;20024;-63
2023/02/03 04:06:59;;;;;;;2.38;1.63;;;;;;;;;;4898073;29;20047;-63
2023/02/03 04:09:24;;;;;;;1.65;1.55;;;;;;;;;;4899786;29;20457;-62
2023/02/03 04:12:02;;;;;;;2.55;1.98;;;;;;;;;;4898479;29;20044;-62
2023/02/03 04:14:29;;;;;;;2.63;2.00;;;;;;;;;;4899872;29;20084;-62
2023/02/03 04:16:54;;;;;;;2.50;1.75;;;;;;;;;;4911709;29;20044;-62
2023/02/03 04:19:20;;;;;;;1.75;1.65;;;;;;;;;;4918444;29;20039;-62
2023/02/03 04:21:45;;;;;;;2.00;1.48;;;;;;;;;;4901670;29;20044;-63
2023/02/03 04:24:10;;;;;;;2.40;1.83;;;;;;;;;;4901523;29;20032;-68
2023/02/03 04:26:36;;;;;;;1.70;1.60;;;;;;;;;;4901533;29;20103;-68
2023/02/03 04:29:02;;;;;;;2.45;1.88;;;;;;;;;;4901527;29;20047;-67
2023/02/03 04:31:28;;;;;;;2.22;1.65;;;;;;;;;;4918451;29;20054;-63
2023/02/03 04:33:53;;;;;;;2.08;1.85;;;;;;;;;;4918194;29;20524;-63
2023/02/03 04:36:19;;;;;;;2.15;1.80;;;;;;;;;;4901081;29;20369;-62
2023/02/03 04:38:44;;;;;;;2.25;2.05;;;;;;;;;;4900838;29;20020;-63
2023/02/03 04:41:09;;;;;;;2.90;1.77;;;;;;;;;;4917931;29;20119;-62
2023/02/03 04:43:36;;;;;;;2.60;2.10;;;;;;;;;;4917605;29;20035;-62
2023/02/03 04:46:01;;;;;;;3.58;1.63;;;;;;;;;;4917928;29;20040;-62
2023/02/03 04:48:27;;;;;;;2.03;1.83;;;;;;;;;;4901010;29;20058;-62
2023/02/03 04:50:52;;;;;;;2.03;1.60;;;;;;;;;;4901129;29;20119;-62
2023/02/03 04:53:18;;;;;;;2.28;1.88;;;;;;;;;;4900696;29;20127;-62
2023/02/03 04:55:47;;;;;;;2.95;1.83;;;;;;;;;;4900866;29;20042;-62
2023/02/03 04:58:12;;;;;;;2.50;1.70;;;;;;;;;;4918094;29;20016;-62
2023/02/03 05:00:38;;;;;;;1.90;1.45;;;;;;;;;;4900854;29;20044;-62
2023/02/03 05:03:03;;;;;;;1.80;1.48;;;;;;;;;;4917203;29;20060;-62
2023/02/03 05:05:29;;;;;;;3.08;1.80;;;;;;;;;;4900893;29;20460;-63
2023/02/03 05:07:54;;;;;;;2.00;1.80;;;;;;;;;;4917685;29;20035;-62
2023/02/03 05:10:20;;;;;;;1.88;1.52;;;;;;;;;;4917600;29;20060;-63
2023/02/03 05:12:46;;;;;;;2.28;1.80;;;;;;;;;;4900798;29;20508;-63
2023/02/03 05:15:11;;;;;;;2.80;1.60;;;;;;;;;;4900750;29;20710;-63
2023/02/03 05:17:38;;;;;;;1.98;1.63;;;;;;;;;;4896974;29;20044;-62
2023/02/03 05:20:05;;;;;;;2.22;1.88;;;;;;;;;;4897571;29;20401;-62
2023/02/03 05:22:30;;;;;;;2.90;2.10;;;;;;;;;;4898335;29;20080;-62
2023/02/03 05:24:56;;;;;;;3.92;2.60;;;;;;;;;;4897173;29;20108;-62
2023/02/03 05:27:21;;;;;;;6.43;4.93;;;;;;;;;;4897966;29;20498;-63
2023/02/03 05:29:46;;;;;;;6.78;4.60;;;;;;;;;;4898086;29;20037;-62
2023/02/03 05:32:12;;;;;;;4.97;3.65;;;;;;;;;;4897850;29;20041;-63
2023/02/03 05:34:38;;;;;;;5.43;3.78;;;;;;;;;;4897561;29;20363;-63
2023/02/03 05:37:03;;;;;;;5.65;3.45;;;;;;;;;;4897301;29;20469;-63
2023/02/03 05:39:29;;;;;;;6.35;4.10;;;;;;;;;;4880484;29;20060;-62
2023/02/03 05:41:54;;;;;;;5.25;3.40;;;;;;;;;;4881565;29;20401;-65
2023/02/03 05:44:21;;;;;;;4.30;3.17;;;;;;;;;;4898927;29;20044;-64
2023/02/03 05:46:47;;;;;;;7.03;4.55;;;;;;;;;;4898523;29;20504;-65
2023/02/03 05:49:12;;;;;;;6.35;4.57;;;;;;;;;;4897319;29;20041;-64
2023/02/03 05:51:38;;;;;;;7.40;4.35;;;;;;;;;;4898540;29;20088;-65
2023/02/03 05:54:04;;;;;;;5.05;4.00;;;;;;;;;;4897433;29;20722;-59
2023/02/03 05:56:29;;;;;;;4.25;3.50;;;;;;;;;;4898174;29;20033;-65
2023/02/03 05:58:54;;;;;;;3.50;3.20;;;;;;;;;;4896903;29;20112;-66
2023/02/03 06:01:20;;;;;;;4.03;2.95;;;;;;;;;;4897046;29;20397;-68
2023/02/03 06:03:46;;;;;;;4.00;3.28;;;;;;;;;;4898867;29;20080;-69
2023/02/03 06:06:12;;;;;;;7.68;5.13;;;;;;;;;;4899052;29;20036;-69
2023/02/03 06:08:37;;;;;;;9.45;6.07;;;;;;;;;;4898656;29;20413;-67
2023/02/03 06:11:04;;;;;;;4.65;3.88;;;;;;;;;;4898307;29;20378;-66
2023/02/03 06:13:29;;;;;;;4.65;3.63;;;;;;;;;;4898402;29;20035;-66
2023/02/03 06:15:55;;;;;;;5.18;3.38;;;;;;;;;;4902027;29;20529;-66
2023/02/03 06:18:21;;;;;;;4.78;3.55;;;;;;;;;;4915632;29;20040;-66
2023/02/03 06:20:48;;;;;;;7.13;4.30;;;;;;;;;;4907063;29;20111;-69
2023/02/03 06:23:16;;;;;;;6.57;4.55;;;;;;;;;;4884400;29;20167;-69
2023/02/03 06:25:41;;;;;;;8.95;5.82;;;;;;;;;;4899735;29;20061;-69
2023/02/03 06:28:07;;;;;;;11.40;7.25;;;;;;;;;;4900339;29;20102;-65
2023/02/03 06:30:32;;;;;;;15.38;9.15;;;;;;;;;;4899902;29;20091;-62
2023/02/03 06:32:57;;;;;;;9.15;5.90;;;;;;;;;;4917043;29;20538;-68
2023/02/03 06:35:23;;;;;;;13.57;8.27;;;;;;;;;;4917030;29;20103;-68
2023/02/03 06:37:48;;;;;;;12.40;7.30;;;;;;;;;;4899904;29;20040;-69
2023/02/03 06:40:13;;;;;;;9.93;6.93;;;;;;;;;;4916858;29;20031;-69
2023/02/03 06:42:39;;;;;;;5.90;4.13;;;;;;;;;;4916954;29;20418;-68
2023/02/03 06:45:04;;;;;;;7.80;5.93;;;;;;;;;;4917067;29;20437;-69
2023/02/03 06:47:30;;;;;;;11.57;7.30;;;;;;;;;;4916965;29;20068;-68
2023/02/03 06:49:55;;;;;;;7.22;4.82;;;;;;;;;;4916247;29;20032;-68
2023/02/03 06:52:20;;;;;;;9.68;5.57;;;;;;;;;;4916079;29;20028;-68
2023/02/03 06:54:46;;;;;;;8.27;5.90;;;;;;;;;;4915783;29;20351;-68
2023/02/03 06:57:11;;;;;;;7.85;5.45;;;;;;;;;;4898870;29;20107;-68
2023/02/03 06:59:36;;;;;;;12.07;6.93;;;;;;;;;;4898722;29;20020;-68
2023/02/03 07:02:02;;;;;;;10.63;6.88;;;;;;;;;;4914001;29;20171;-68
2023/02/03 07:04:28;;;;;;;10.90;6.75;;;;;;;;;;4881442;29;20036;-68
2023/02/03 07:06:54;;;;;;;8.68;5.70;;;;;;;;;;4898196;29;20510;-69
2023/02/03 07:09:20;;;;;;;10.00;6.20;;;;;;;;;;4915567;29;20115;-71
2023/02/03 07:11:52;;;;;;;11.43;6.25;;;;;;;;;;4916336;29;20040;-70
2023/02/03 07:14:18;;;;;;;12.18;6.90;;;;;;;;;;4898441;29;20525;-70
2023/02/03 07:16:43;;;;;;;8.32;5.40;;;;;;;;;;4916689;29;20135;-68
2023/02/03 07:22:23;;;;;;;4.65;4.03;;;;;;;;;;4871937;29;20451;-68
2023/02/03 07:24:48;;;;;;;8.63;5.93;;;;;;;;;;4858772;29;20100;-69
2023/02/03 07:27:14;;;;;;;6.05;4.55;;;;;;;;;;4862972;29;20042;-69
2023/02/03 07:29:39;;;;;;;13.98;7.88;;;;;;;;;;4862578;29;20089;-69
2023/02/03 07:32:04;;;;;;;11.27;7.20;;;;;;;;;;4864032;29;20037;-69
2023/02/03 07:34:29;;;;;;;8.88;5.82;;;;;;;;;;4862815;29;20085;-69
2023/02/03 07:36:55;;;;;;;5.78;4.43;;;;;;;;;;4863947;29;20033;-69
2023/02/03 07:39:20;;;;;;;7.40;5.63;;;;;;;;;;4863887;29;20037;-69
2023/02/03 07:41:46;;;;;;;8.90;6.35;;;;;;;;;;4862679;29;20037;-69
2023/02/03 07:44:11;;;;;;;11.32;8.07;;;;;;;;;;4863828;29;20034;-69
2023/02/03 07:46:43;;;;;;;39.22;22.17;;;;;;;;;;4862558;29;20075;-69
2023/02/03 07:49:09;;;;;;;7.07;4.70;;;;;;;;;;4862723;29;20072;-69
2023/02/03 07:51:34;;;;;;;6.72;4.97;;;;;;;;;;4863924;29;20069;-69
2023/02/03 07:53:59;;;;;;;8.65;5.90;;;;;;;;;;4862399;29;20090;-69
2023/02/03 07:56:25;;;;;;;9.30;5.40;;;;;;;;;;4862473;29;20095;-69
2023/02/03 07:58:53;;;;;;;7.55;4.72;;;;;;;;;;4863479;29;20110;-69
2023/02/03 08:01:18;;;;;;;6.78;4.32;;;;;;;;;;4863538;29;20599;-69
2023/02/03 08:03:44;;;;;;;5.65;4.20;;;;;;;;;;4863584;29;20124;-69
2023/02/03 08:06:09;;;;;;;7.63;5.13;;;;;;;;;;4864514;29;20049;-69
2023/02/03 08:08:35;;;;;;;4.93;4.20;;;;;;;;;;4864020;29;20034;-69
2023/02/03 08:11:00;;;;;;;6.50;4.90;;;;;;;;;;4863298;29;20041;-70
2023/02/03 08:13:26;;;;;;;9.13;7.45;;;;;;;;;;4863392;29;20040;-71
2023/02/03 08:15:52;;;;;;;9.98;7.35;;;;;;;;;;4863368;29;20037;-70
2023/02/03 08:18:18;;;;;;;7.07;5.45;;;;;;;;;;4863292;29;20037;-71
2023/02/03 08:20:43;;;;;;;8.05;5.60;;;;;;;;;;4861858;29;20521;-70
2023/02/03 08:23:08;;;;;;;7.50;5.40;;;;;;;;;;4863173;29;20037;-70
2023/02/03 08:25:34;;;;;;;12.05;7.70;;;;;;;;;;4863148;29;20117;-71
2023/02/03 08:28:00;;;;;;;8.88;6.43;;;;;;;;;;4863048;29;20017;-71
2023/02/03 08:30:25;;;;;;;9.40;6.00;;;;;;;;;;4863013;29;20037;-71
2023/02/03 08:32:51;;;;;;;7.85;5.57;;;;;;;;;;4861885;29;20470;-70
2023/02/03 08:35:16;;;;;;;6.72;4.78;;;;;;;;;;4861667;29;20506;-70
2023/02/03 08:37:41;;;;;;;6.72;4.47;;;;;;;;;;4860765;29;20037;-70
2023/02/03 08:40:08;;;;;;;5.88;4.75;;;;;;;;;;4862875;29;20078;-71
2023/02/03 08:42:34;;;;;;;6.85;4.15;;;;;;;;;;4861755;29;20037;-71
2023/02/03 08:44:59;;;;;;;5.68;4.18;;;;;;;;;;4863069;29;20043;-70
2023/02/03 08:47:25;;;;;;;9.88;5.35;;;;;;;;;;4861560;29;20045;-70
2023/02/03 08:49:50;;;;;;;8.48;5.10;;;;;;;;;;4861756;29;20033;-70
2023/02/03 08:52:16;;;;;;;5.45;3.13;;;;;;;;;;4861468;29;20041;-70
2023/02/03 08:54:41;;;;;;;6.35;4.05;;;;;;;;;;4862589;29;20446;-70
2023/02/03 08:57:06;;;;;;;8.43;4.55;;;;;;;;;;4861327;29;20056;-70
2023/02/03 08:59:34;;;;;;;7.22;4.47;;;;;;;;;;4845867;29;20497;-70
2023/02/03 09:02:03;;;;;;;7.32;4.18;;;;;;;;;;4862555;29;20041;-70
2023/02/03 09:04:28;;;;;;;8.85;5.00;;;;;;;;;;4861399;29;20041;-70
2023/02/03 09:06:54;;;;;;;8.77;5.50;;;;;;;;;;4861168;29;20041;-70
2023/02/03 09:09:20;;;;;;;9.23;5.35;;;;;;;;;;4862402;29;20033;-70
2023/02/03 09:11:47;;;;;;;6.57;4.80;;;;;;;;;;4861057;29;20037;-70
2023/02/03 09:14:12;;;;;;;6.03;4.13;;;;;;;;;;4862371;29;20037;-70
2023/02/03 09:16:39;;;;;;;6.35;4.32;;;;;;;;;;4862190;29;20182;-70
2023/02/03 09:19:04;;;;;;;6.90;4.60;;;;;;;;;;4845915;29;20033;-70
2023/02/03 09:21:29;;;;;;;9.23;5.10;;;;;;;;;;4860716;29;20407;-70
2023/02/03 09:23:54;;;;;;;5.07;3.72;;;;;;;;;;4862134;29;20067;-70
2023/02/03 09:26:20;;;;;;;6.32;4.55;;;;;;;;;;4862074;29;20219;-70
2023/02/03 09:29:00;;;;;;;9.23;5.05;;;;;;;;;;4886856;24;20464;-69
2023/02/03 09:31:25;;;;;;;4.38;3.60;;;;;;;;;;4901769;23;20084;-68
2023/02/03 09:33:51;;;;;;;7.07;4.43;;;;;;;;;;4936393;29;20070;-67
2023/02/03 09:36:16;;;;;;;5.72;4.28;;;;;;;;;;4919885;29;20031;-68
2023/02/03 09:38:42;;;;;;;8.57;5.43;;;;;;;;;;4936911;29;20583;-68
2023/02/03 09:41:13;;;;;;;6.57;4.43;;;;;;;;;;4936895;29;20038;-68
2023/02/03 09:43:54;;;;;;;7.18;4.68;;;;;;;;;;4919752;29;20035;-68
2023/02/03 09:46:19;;;;;;;9.38;6.95;;;;;;;;;;4936920;29;20188;-68
2023/02/03 09:48:52;;;;;;;8.07;4.97;;;;;;;;;;4919582;29;20085;-68
2023/02/03 09:51:34;;;;;;;5.88;4.03;;;;;;;;;;4949244;23;20516;31
2023/02/03 09:54:03;;;;;;;6.78;4.43;;;;;;;;;;4843492;29;20076;-71
2023/02/03 09:56:31;;;;;;;9.73;6.88;;;;;;;;;;4861694;29;20101;-71
2023/02/03 09:58:57;;;;;;;8.07;5.15;;;;;;;;;;4862472;29;20060;-71
2023/02/03 10:01:24;;;;;;;14.23;9.32;;;;;;;;;;4862441;29;20048;-70
2023/02/03 10:04:13;;;;;;;7.40;4.60;;;;;;;;;;4844979;29;20466;-70
2023/02/03 10:06:41;;;;;;;16.52;10.43;;;;;;;;;;4848995;29;20414;-70
2023/02/03 10:09:36;;;;;;;12.43;8.15;;;;;;;;;;4844783;29;20030;-70
2023/02/03 10:12:01;;;;;;;9.18;5.82;;;;;;;;;;4841869;29;20471;-70
2023/02/03 10:14:38;;;;;;;12.80;8.57;;;;;;;;;;4861484;29;20120;-70
2023/02/03 10:17:24;;;;;;;17.15;9.95;;;;;;;;;;4861429;29;20109;-70
2023/02/03 10:19:54;;;;;;;18.70;11.40;;;;;;;;;;4861308;29;20470;-70
2023/02/03 10:22:21;;;;;;;21.48;14.10;;;;;;;;;;4861280;29;20037;-70
2023/02/03 10:24:51;;;;;;;10.95;7.45;;;;;;;;;;4844669;29;20030;-70
2023/02/03 10:27:19;;;;;;;8.23;6.10;;;;;;;;;;4844704;29;20120;-70
2023/02/03 10:29:47;;;;;;;15.10;9.13;;;;;;;;;;4861236;29;20526;-70
2023/02/03 10:32:13;;;;;;;22.13;12.98;;;;;;;;;;4844586;29;20550;-70
2023/02/03 10:34:38;;;;;;;9.57;6.65;;;;;;;;;;4844533;29;20121;-70
2023/02/03 10:37:22;;;;;;;9.40;7.10;;;;;;;;;;4861303;29;20474;-69
2023/02/03 10:39:49;;;;;;;8.10;5.88;;;;;;;;;;4844459;29;20119;-69
2023/02/03 10:42:15;;;;;;;12.93;8.65;;;;;;;;;;4861084;29;20461;-69
2023/02/03 10:44:57;;;;;;;5.80;4.43;;;;;;;;;;4861057;29;20103;-70
2023/02/03 10:47:28;;;;;;;7.63;5.35;;;;;;;;;;4844659;29;20600;-71
2023/02/03 10:49:54;;;;;;;6.93;4.47;;;;;;;;;;4844476;29;20097;-70
2023/02/03 10:52:25;;;;;;;6.32;4.55;;;;;;;;;;4846932;29;20129;-70
2023/02/03 10:54:51;;;;;;;5.28;4.43;;;;;;;;;;4861072;29;20491;-70
2023/02/03 10:57:16;;;;;;;8.35;5.35;;;;;;;;;;4860068;29;20096;-70
2023/02/03 10:59:42;;;;;;;5.15;3.92;;;;;;;;;;4861435;29;20459;-69
2023/02/03 11:02:09;;;;;;;7.20;5.40;;;;;;;;;;4864769;29;20479;-69
2023/02/03 11:04:35;;;;;;;6.85;5.18;;;;;;;;;;4864501;29;20581;-69
2023/02/03 11:07:01;;;;;;;5.43;4.65;;;;;;;;;;4863284;29;20042;-69
2023/02/03 11:09:36;;;;;;;8.35;6.55;;;;;;;;;;4864598;29;20044;-69
2023/02/03 11:12:13;;;;;;;8.88;6.47;;;;;;;;;;4864313;29;20120;-69
2023/02/03 11:14:39;;;;;;;9.43;7.35;;;;;;;;;;4864389;29;20443;-69
2023/02/03 11:17:08;;;;;;;14.27;11.98;;;;;;;;;;4864342;29;20033;-69
2023/02/03 11:19:35;;;;;;;17.27;12.07;;;;;;;;;;4864294;29;20108;-69
2023/02/03 11:22:02;;;;;;;19.05;11.25;;;;;;;;;;4864389;29;20044;-69
2023/02/03 11:24:30;;;;;;;18.88;11.30;;;;;;;;;;4864156;29;20037;-69
2023/02/03 11:27:13;;;;;;;29.15;15.52;;;;;;;;;;4864116;29;20034;-69
2023/02/03 11:29:43;;;;;;;10.20;6.30;;;;;;;;;;4864152;29;20041;-69
2023/02/03 11:32:27;;;;;;;23.02;10.60;;;;;;;;;;4864153;29;20033;-69
2023/02/03 11:34:52;;;;;;;14.43;8.80;;;;;;;;;;4864085;29;20033;-69
2023/02/03 11:37:24;;;;;;;28.25;13.82;;;;;;;;;;4862717;29;20026;-69
2023/02/03 11:39:50;;;;;;;23.00;11.68;;;;;;;;;;4864053;29;20048;-69
2023/02/03 11:42:22;;;;;;;23.60;10.85;;;;;;;;;;4863889;29;20033;-69
2023/02/03 11:44:48;;;;;;;25.92;13.68;;;;;;;;;;4864076;29;20120;-69
2023/02/03 11:47:15;;;;;;;27.75;13.15;;;;;;;;;;4862598;29;20182;-69
2023/02/03 11:49:44;;;;;;;19.10;8.90;;;;;;;;;;4863741;29;20376;-69
2023/02/03 11:52:12;;;;;;;18.67;8.73;;;;;;;;;;4868163;29;20116;-69
2023/02/03 11:54:38;;;;;;;19.20;8.20;;;;;;;;;;4882560;29;20032;-69
2023/02/03 11:57:08;;;;;;;18.27;9.18;;;;;;;;;;4882386;29;20055;-69
2023/02/03 11:59:59;;;;;;;15.05;6.85;;;;;;;;;;4882355;29;20062;-69
2023/02/03 12:02:43;;;;;;;18.33;7.57;;;;;;;;;;4879192;29;20587;-69
2023/02/03 12:05:20;;;;;;;7.45;5.32;;;;;;;;;;4880844;29;20150;-69
2023/02/03 12:07:49;;;;;;;6.65;4.35;;;;;;;;;;4896487;29;20088;-69
2023/02/03 12:10:27;;;;;;;6.45;4.15;;;;;;;;;;4896278;29;20037;-69
2023/02/03 12:13:04;;;;;;;6.57;4.78;;;;;;;;;;4880781;29;20549;-69
2023/02/03 12:15:49;;;;;;;5.95;4.50;;;;;;;;;;4881956;29;20103;-69
2023/02/03 12:18:23;;;;;;;7.00;5.05;;;;;;;;;;4881876;29;20037;-69
2023/02/03 12:20:48;;;;;;;5.22;3.58;;;;;;;;;;4881773;29;20109;-69
2023/02/03 12:23:19;;;;;;;4.72;3.70;;;;;;;;;;4896114;29;20123;-67
2023/02/03 12:25:59;;;;;;;7.20;4.90;;;;;;;;;;4897335;23;20029;-67
2023/02/03 12:28:25;;;;;;;5.07;4.53;;;;;;;;;;4918154;29;20040;-66
2023/02/03 12:30:52;;;;;;;5.30;4.03;;;;;;;;;;4902230;29;20028;-67
2023/02/03 12:33:20;;;;;;;5.05;4.15;;;;;;;;;;4920129;29;20392;-67
2023/02/03 12:35:58;;;;;;;6.47;4.78;;;;;;;;;;4919931;29;20024;-66
2023/02/03 12:38:29;;;;;;;4.53;4.07;;;;;;;;;;4902472;29;20115;-66
2023/02/03 12:40:59;;;;;;;4.28;3.92;;;;;;;;;;4919100;29;20043;-66
2023/02/03 12:43:38;;;;;;;5.88;4.35;;;;;;;;;;4919020;29;20119;-66
2023/02/03 12:46:15;;;;;;;7.68;4.97;;;;;;;;;;4918964;29;20036;-67
2023/02/03 12:48:59;;;;;;;5.22;4.22;;;;;;;;;;4901890;29;20032;-66
2023/02/03 12:51:44;;;;;;;5.43;4.63;;;;;;;;;;4901747;29;20036;-66
2023/02/03 12:54:22;;;;;;;4.07;3.67;;;;;;;;;;4916953;29;20192;-67
2023/02/03 12:56:50;;;;;;;5.57;3.63;;;;;;;;;;4918773;29;20028;-66
2023/02/03 12:59:19;;;;;;;4.32;3.63;;;;;;;;;;4901646;29;20114;-66
2023/02/03 13:01:56;;;;;;;4.95;4.28;;;;;;;;;;4918660;29;20078;-66
2023/02/03 13:04:37;;;;;;;5.90;4.55;;;;;;;;;;4918642;29;20036;-67
2023/02/03 13:07:10;;;;;;;5.43;4.15;;;;;;;;;;4918516;29;20056;-66
2023/02/03 13:09:50;;;;;;;4.57;4.18;;;;;;;;;;4918552;29;20080;-66
2023/02/03 13:12:23;;;;;;;4.07;3.53;;;;;;;;;;4901445;29;20126;-66
2023/02/03 13:14:48;;;;;;;5.95;4.20;;;;;;;;;;4918402;29;20047;-67
2023/02/03 13:17:13;;;;;;;3.97;3.05;;;;;;;;;;4901445;29;20036;-66
2023/02/03 13:19:41;;;;;;;6.22;3.38;;;;;;;;;;4901386;29;20040;-66
2023/02/03 13:22:11;;;;;;;4.53;3.75;;;;;;;;;;4917980;29;20036;-67
2023/02/03 13:24:37;;;;;;;5.23;4.27;;;;;;;;;;4918096;29;20028;-66
2023/02/03 13:27:02;;;;;;;4.07;3.67;;;;;;;;;;4917985;29;20076;-66
2023/02/03 13:29:30;;;;;;;3.58;3.28;;;;;;;;;;4918182;29;20040;-66
2023/02/03 13:32:06;;;;;;;3.38;3.08;;;;;;;;;;4885989;29;20032;-66
2023/02/03 13:34:34;;;;;;;3.47;3.15;;;;;;;;;;4901021;29;20055;-67
2023/02/03 13:37:00;;;;;;;3.80;3.38;;;;;;;;;;4918526;29;20038;-66
2023/02/03 13:39:39;;;;;;;3.17;2.88;;;;;;;;;;4900894;29;20035;-66
2023/02/03 13:42:10;;;;;;;3.38;3.08;;;;;;;;;;4917930;29;20043;-66
2023/02/03 13:44:36;;;;;;;3.60;3.03;;;;;;;;;;4901110;29;20051;-66
2023/02/03 13:47:02;;;;;;;3.42;3.10;;;;;;;;;;4917881;29;20055;-66
2023/02/03 13:49:31;;;;;;;3.65;3.35;;;;;;;;;;4917804;29;20036;-66
2023/02/03 13:51:57;;;;;;;3.83;3.43;;;;;;;;;;4901036;29;20036;-66
2023/02/03 13:54:36;;;;;;;4.70;3.88;;;;;;;;;;4885210;29;20088;-66
2023/02/03 13:57:03;;;;;;;4.18;3.78;;;;;;;;;;4900815;29;20067;-66
2023/02/03 13:59:37;;;;;;;3.70;3.40;;;;;;;;;;4917716;29;20028;-66
2023/02/03 14:02:18;;;;;;;4.30;3.53;;;;;;;;;;4917654;29;20460;-66
2023/02/03 14:04:43;;;;;;;;;;;;;;;;;;4918003;29;20468;-66
2023/02/03 14:07:40;;;;;;;2.67;2.47;;;;;;;;;;4917554;29;19911;-66
2023/02/03 14:10:11;;;;;;;3.60;3.30;;;;;;;;;;4911846;29;20312;-66
2023/02/03 14:12:37;;;;;;;3.10;2.72;;;;;;;;;;4900404;29;20028;-66
2023/02/03 14:15:16;;;;;;;2.92;2.70;;;;;;;;;;4917463;29;20477;-66
2023/02/03 14:17:41;;;;;;;2.38;2.17;;;;;;;;;;4917561;29;20528;-66
2023/02/03 14:20:28;;;;;;;3.53;2.50;;;;;;;;;;4917472;29;20112;-66
2023/02/03 14:22:54;;;;;;;2.30;2.10;;;;;;;;;;4917859;29;20036;-66
2023/02/03 14:25:20;;;;;;;4.07;3.35;;;;;;;;;;4900352;29;20031;-68
2023/02/03 14:27:46;;;;;;;2.72;2.53;;;;;;;;;;4900174;29;20055;-67
2023/02/03 14:30:13;;;;;;;2.00;1.85;;;;;;;;;;4917299;29;20035;-66
2023/02/03 14:32:58;;;;;;;2.42;2.22;;;;;;;;;;4917222;29;20042;-67
2023/02/03 14:35:30;;;;;;;3.28;2.80;;;;;;;;;;4918236;29;20131;-67
2023/02/03 14:38:06;;;;;;;3.05;2.83;;;;;;;;;;4921237;29;20024;-67
2023/02/03 14:40:31;;;;;;;5.20;3.78;;;;;;;;;;4921107;29;20028;-66
2023/02/03 14:42:59;;;;;;;3.20;2.90;;;;;;;;;;4921096;29;20024;-67
2023/02/03 14:45:30;;;;;;;2.25;2.05;;;;;;;;;;4921115;29;20853;-69
2023/02/03 14:47:58;;;;;;;2.80;2.60;;;;;;;;;;4904112;29;20029;-70
2023/02/03 14:50:42;;;;;;;2.25;2.10;;;;;;;;;;4904028;29;20040;-70
2023/02/03 14:53:11;;;;;;;6.45;4.30;;;;;;;;;;4903961;29;20397;-70